Terminal Aerodrome Forecast
Issued by NWS Pittsburgh, PA

Current Version | Previous Version | Graphics & Text | Print | Product List | Glossary On
Versions: 1 2 3 4 5 6 7 8 9 10 11 12 13 14 15 16 17 18 19 20 21 22 23 24 25 26 27 28 29 30 31 32 33 34 35 36
239
FTUS41 KPBZ 010343 AAB
TAFPIT
TAF AMD
KPIT 010343Z 0104/0206 11008KT 3SM -RA BR OVC025
     FM010500 14009KT 3SM -RA OVC015
     FM010700 15008KT 4SM -RA BR OVC007
     FM011500 23006KT P6SM BKN015
     FM020000 25006KT P6SM -SHRA OVC025=

USA.gov is the U.S. government's official web portal to all federal, state and local government web resources and services.